sensor_id;sensor_type;location;lat;lon;timestamp;pressure;altitude;pressure_sealevel;temperature
65738;BMP280;52478;51.844;6.582;2024-02-21T00:01:16;101927.38;;;20.75
65738;BMP280;52478;51.844;6.582;2024-02-21T00:03:43;101928.63;;;20.74
65738;BMP280;52478;51.844;6.582;2024-02-21T00:06:10;101919.03;;;20.75
65738;BMP280;52478;51.844;6.582;2024-02-21T00:08:36;101918.75;;;20.73
65738;BMP280;52478;51.844;6.582;2024-02-21T00:11:03;101916.53;;;20.77
65738;BMP280;52478;51.844;6.582;2024-02-21T00:13:31;101901.63;;;20.80
65738;BMP280;52478;51.844;6.582;2024-02-21T00:16:00;101911.22;;;20.79
65738;BMP280;52478;51.844;6.582;2024-02-21T00:18:27;101906.66;;;20.76
65738;BMP280;52478;51.844;6.582;2024-02-21T00:20:53;101904.56;;;20.71
65738;BMP280;52478;51.844;6.582;2024-02-21T00:23:20;101897.47;;;20.70
65738;BMP280;52478;51.844;6.582;2024-02-21T00:25:46;101900.25;;;20.70
65738;BMP280;52478;51.844;6.582;2024-02-21T00:28:13;101889.44;;;20.72
65738;BMP280;52478;51.844;6.582;2024-02-21T00:30:40;101896.50;;;20.73
65738;BMP280;52478;51.844;6.582;2024-02-21T00:33:07;101897.78;;;20.72
65738;BMP280;52478;51.844;6.582;2024-02-21T00:35:33;101881.56;;;20.70
65738;BMP280;52478;51.844;6.582;2024-02-21T00:38:00;101878.50;;;20.68
65738;BMP280;52478;51.844;6.582;2024-02-21T00:40:28;101881.78;;;20.67
65738;BMP280;52478;51.844;6.582;2024-02-21T00:42:55;101866.09;;;20.64
65738;BMP280;52478;51.844;6.582;2024-02-21T00:45:21;101870.38;;;20.65
65738;BMP280;52478;51.844;6.582;2024-02-21T00:47:49;101866.81;;;20.64
65738;BMP280;52478;51.844;6.582;2024-02-21T00:50:16;101867.88;;;20.67
65738;BMP280;52478;51.844;6.582;2024-02-21T00:52:42;101876.44;;;20.63
65738;BMP280;52478;51.844;6.582;2024-02-21T00:55:09;101863.53;;;20.66
65738;BMP280;52478;51.844;6.582;2024-02-21T00:57:36;101866.31;;;20.66
65738;BMP280;52478;51.844;6.582;2024-02-21T01:00:03;101860.53;;;20.64
65738;BMP280;52478;51.844;6.582;2024-02-21T01:02:29;101862.78;;;20.65
65738;BMP280;52478;51.844;6.582;2024-02-21T01:04:58;101863.31;;;20.64
65738;BMP280;52478;51.844;6.582;2024-02-21T01:07:25;101852.41;;;20.66
65738;BMP280;52478;51.844;6.582;2024-02-21T01:09:51;101841.28;;;20.66
65738;BMP280;52478;51.844;6.582;2024-02-21T01:12:18;101833.94;;;20.63
65738;BMP280;52478;51.844;6.582;2024-02-21T01:14:44;101835.19;;;20.62
65738;BMP280;52478;51.844;6.582;2024-02-21T01:17:11;101833.19;;;20.62
65738;BMP280;52478;51.844;6.582;2024-02-21T01:19:37;101835.47;;;20.64
65738;BMP280;52478;51.844;6.582;2024-02-21T01:22:06;101828.09;;;20.61
65738;BMP280;52478;51.844;6.582;2024-02-21T01:24:32;101843.81;;;20.64
65738;BMP280;52478;51.844;6.582;2024-02-21T01:26:59;101845.84;;;20.63
65738;BMP280;52478;51.844;6.582;2024-02-21T01:29:25;101840.50;;;20.60
65738;BMP280;52478;51.844;6.582;2024-02-21T01:31:52;101833.13;;;20.57
65738;BMP280;52478;51.844;6.582;2024-02-21T01:34:18;101823.28;;;20.56
65738;BMP280;52478;51.844;6.582;2024-02-21T01:36:45;101813.41;;;20.55
65738;BMP280;52478;51.844;6.582;2024-02-21T01:39:12;101812.09;;;20.50
65738;BMP280;52478;51.844;6.582;2024-02-21T01:41:39;101811.34;;;20.50
65738;BMP280;52478;51.844;6.582;2024-02-21T01:44:05;101805.22;;;20.46
65738;BMP280;52478;51.844;6.582;2024-02-21T01:46:32;101802.22;;;20.49
65738;BMP280;52478;51.844;6.582;2024-02-21T01:48:59;101792.09;;;20.46
65738;BMP280;52478;51.844;6.582;2024-02-21T01:51:26;101796.09;;;20.45
65738;BMP280;52478;51.844;6.582;2024-02-21T01:53:53;101797.88;;;20.43
65738;BMP280;52478;51.844;6.582;2024-02-21T01:56:22;101789.53;;;20.43
65738;BMP280;52478;51.844;6.582;2024-02-21T01:58:51;101772.84;;;20.43
65738;BMP280;52478;51.844;6.582;2024-02-21T02:01:17;101780.44;;;20.42
65738;BMP280;52478;51.844;6.582;2024-02-21T02:03:45;101769.78;;;20.41
65738;BMP280;52478;51.844;6.582;2024-02-21T02:06:12;101782.69;;;20.38
65738;BMP280;52478;51.844;6.582;2024-02-21T02:08:38;101771.31;;;20.42
65738;BMP280;52478;51.844;6.582;2024-02-21T02:11:05;101757.72;;;20.44
65738;BMP280;52478;51.844;6.582;2024-02-21T02:13:33;101761.44;;;20.41
65738;BMP280;52478;51.844;6.582;2024-02-21T02:15:59;101766.00;;;20.38
65738;BMP280;52478;51.844;6.582;2024-02-21T02:18:26;101770.28;;;20.39
65738;BMP280;52478;51.844;6.582;2024-02-21T02:20:52;101761.44;;;20.41
65738;BMP280;52478;51.844;6.582;2024-02-21T02:23:23;101771.31;;;20.42
65738;BMP280;52478;51.844;6.582;2024-02-21T02:25:50;101771.31;;;20.42
65738;BMP280;52478;51.844;6.582;2024-02-21T02:28:17;101753.09;;;20.41
65738;BMP280;52478;51.844;6.582;2024-02-21T02:30:44;101750.59;;;20.43
65738;BMP280;52478;51.844;6.582;2024-02-21T02:33:11;101754.94;;;20.44
65738;BMP280;52478;51.844;6.582;2024-02-21T02:35:38;101748.28;;;20.41
65738;BMP280;52478;51.844;6.582;2024-02-21T02:38:05;101739.19;;;20.41
65738;BMP280;52478;51.844;6.582;2024-02-21T02:40:33;101747.28;;;20.39
65738;BMP280;52478;51.844;6.582;2024-02-21T02:43:00;101746.28;;;20.42
65738;BMP280;52478;51.844;6.582;2024-02-21T02:45:26;101730.84;;;20.41
65738;BMP280;52478;51.844;6.582;2024-02-21T02:47:53;101740.72;;;20.42
65738;BMP280;52478;51.844;6.582;2024-02-21T02:50:20;101733.16;;;20.42
65738;BMP280;52478;51.844;6.582;2024-02-21T02:52:46;101728.34;;;20.43
65738;BMP280;52478;51.844;6.582;2024-02-21T02:55:13;101727.09;;;20.44
65738;BMP280;52478;51.844;6.582;2024-02-21T02:57:41;101726.81;;;20.42
65738;BMP280;52478;51.844;6.582;2024-02-21T03:00:09;101720.97;;;20.40
65738;BMP280;52478;51.844;6.582;2024-02-21T03:02:37;101714.91;;;20.41
65738;BMP280;52478;51.844;6.582;2024-02-21T03:05:12;101713.69;;;20.42
65738;BMP280;52478;51.844;6.582;2024-02-21T03:07:40;101703.03;;;20.41
65738;BMP280;52478;51.844;6.582;2024-02-21T03:10:07;101714.44;;;20.43
65738;BMP280;52478;51.844;6.582;2024-02-21T03:12:33;101715.69;;;20.42
65738;BMP280;52478;51.844;6.582;2024-02-21T03:15:01;101720.78;;;20.43
65738;BMP280;52478;51.844;6.582;2024-02-21T03:17:27;101728.34;;;20.43
65738;BMP280;52478;51.844;6.582;2024-02-21T03:19:54;101726.81;;;20.42
65738;BMP280;52478;51.844;6.582;2024-02-21T03:22:21;101711.88;;;20.39
65738;BMP280;52478;51.844;6.582;2024-02-21T03:24:47;101719.72;;;20.41
65738;BMP280;52478;51.844;6.582;2024-02-21T03:27:14;101718.19;;;20.40
65738;BMP280;52478;51.844;6.582;2024-02-21T03:29:40;101714.91;;;20.41
65738;BMP280;52478;51.844;6.582;2024-02-21T03:32:08;101707.06;;;20.40
65738;BMP280;52478;51.844;6.582;2024-02-21T03:34:34;101711.13;;;20.39
65738;BMP280;52478;51.844;6.582;2024-02-21T03:37:01;101709.59;;;20.38
65738;BMP280;52478;51.844;6.582;2024-02-21T03:39:30;101709.84;;;20.34
65738;BMP280;52478;51.844;6.582;2024-02-21T03:41:57;101709.59;;;20.38
65738;BMP280;52478;51.844;6.582;2024-02-21T03:44:25;101705.56;;;20.39
65738;BMP280;52478;51.844;6.582;2024-02-21T03:46:52;101711.13;;;20.39
65738;BMP280;52478;51.844;6.582;2024-02-21T03:49:20;101715.94;;;20.38
65738;BMP280;52478;51.844;6.582;2024-02-21T03:51:46;101710.38;;;20.38
65738;BMP280;52478;51.844;6.582;2024-02-21T03:54:12;101719.47;;;20.39
65738;BMP280;52478;51.844;6.582;2024-02-21T03:56:39;101718.19;;;20.40
65738;BMP280;52478;51.844;6.582;2024-02-21T03:59:06;101701.50;;;20.40
65738;BMP280;52478;51.844;6.582;2024-02-21T04:01:33;101707.06;;;20.40
65738;BMP280;52478;51.844;6.582;2024-02-21T04:03:59;101698.47;;;20.38
65738;BMP280;52478;51.844;6.582;2024-02-21T04:06:27;101694.16;;;20.37
65738;BMP280;52478;51.844;6.582;2024-02-21T04:08:53;101703.28;;;20.37
65738;BMP280;52478;51.844;6.582;2024-02-21T04:11:20;101703.22;;;20.32
65738;BMP280;52478;51.844;6.582;2024-02-21T04:13:46;101696.41;;;20.33
65738;BMP280;52478;51.844;6.582;2024-02-21T04:16:15;101691.84;;;20.30
65738;BMP280;52478;51.844;6.582;2024-02-21T04:18:42;101689.06;;;20.30
65738;BMP280;52478;51.844;6.582;2024-02-21T04:21:08;101689.06;;;20.30
65738;BMP280;52478;51.844;6.582;2024-02-21T04:23:36;101699.97;;;20.33
65738;BMP280;52478;51.844;6.582;2024-02-21T04:26:03;101700.72;;;20.34
65738;BMP280;52478;51.844;6.582;2024-02-21T04:28:29;101690.84;;;20.33
65738;BMP280;52478;51.844;6.582;2024-02-21T04:30:56;101688.56;;;20.31
65738;BMP280;52478;51.844;6.582;2024-02-21T04:33:22;101683.75;;;20.32
65738;BMP280;52478;51.844;6.582;2024-02-21T04:35:49;101685.03;;;20.31
65738;BMP280;52478;51.844;6.582;2024-02-21T04:38:15;101680.72;;;20.30
65738;BMP280;52478;51.844;6.582;2024-02-21T04:40:43;101681.22;;;20.28
65738;BMP280;52478;51.844;6.582;2024-02-21T04:43:09;101683.22;;;20.28
65738;BMP280;52478;51.844;6.582;2024-02-21T04:45:36;101677.94;;;20.30
65738;BMP280;52478;51.844;6.582;2024-02-21T04:48:03;101681.19;;;20.23
65738;BMP280;52478;51.844;6.582;2024-02-21T04:50:29;101674.66;;;20.26
65738;BMP280;52478;51.844;6.582;2024-02-21T04:52:56;101677.66;;;20.28
65738;BMP280;52478;51.844;6.582;2024-02-21T04:55:22;101679.19;;;20.29
65738;BMP280;52478;51.844;6.582;2024-02-21T04:57:50;101675.16;;;20.30
65738;BMP280;52478;51.844;6.582;2024-02-21T05:00:17;101671.16;;;20.31
65738;BMP280;52478;51.844;6.582;2024-02-21T05:02:43;101675.41;;;20.32
65738;BMP280;52478;51.844;6.582;2024-02-21T05:05:10;101658.47;;;20.30
65738;BMP280;52478;51.844;6.582;2024-02-21T05:07:36;101667.81;;;20.32
65738;BMP280;52478;51.844;6.582;2024-02-21T05:10:03;101662.56;;;20.34
65738;BMP280;52478;51.844;6.582;2024-02-21T05:12:30;101651.69;;;20.31
65738;BMP280;52478;51.844;6.582;2024-02-21T05:14:57;101645.06;;;20.28
65738;BMP280;52478;51.844;6.582;2024-02-21T05:17:24;101660.22;;;20.27
65738;BMP280;52478;51.844;6.582;2024-02-21T05:19:50;101652.41;;;20.26
65738;BMP280;52478;51.844;6.582;2024-02-21T05:22:17;101650.63;;;20.28
65738;BMP280;52478;51.844;6.582;2024-02-21T05:24:43;101644.22;;;19.81
65738;BMP280;52478;51.844;6.582;2024-02-21T05:27:09;101636.28;;;19.99
65738;BMP280;52478;51.844;6.582;2024-02-21T05:29:36;101634.31;;;20.05
65738;BMP280;52478;51.844;6.582;2024-02-21T05:32:04;101633.31;;;20.08
65738;BMP280;52478;51.844;6.582;2024-02-21T05:34:30;101638.38;;;20.09
65738;BMP280;52478;51.844;6.582;2024-02-21T05:36:57;101624.47;;;20.09
65738;BMP280;52478;51.844;6.582;2024-02-21T05:39:25;101625.78;;;20.14
65738;BMP280;52478;51.844;6.582;2024-02-21T05:41:51;101631.56;;;20.16
65738;BMP280;52478;51.844;6.582;2024-02-21T05:44:18;101628.78;;;20.16
65738;BMP280;52478;51.844;6.582;2024-02-21T05:46:46;101629.34;;;20.14
65738;BMP280;52478;51.844;6.582;2024-02-21T05:49:13;101620.44;;;20.16
65738;BMP280;52478;51.844;6.582;2024-02-21T05:51:40;101613.16;;;20.18
65738;BMP280;52478;51.844;6.582;2024-02-21T05:54:06;101613.16;;;20.18
65738;BMP280;52478;51.844;6.582;2024-02-21T05:56:33;101615.44;;;20.20
65738;BMP280;52478;51.844;6.582;2024-02-21T05:59:00;101613.94;;;20.19
65738;BMP280;52478;51.844;6.582;2024-02-21T06:01:26;101614.69;;;20.25
65738;BMP280;52478;51.844;6.582;2024-02-21T06:03:53;101602.06;;;20.24
65738;BMP280;52478;51.844;6.582;2024-02-21T06:06:21;101599.81;;;20.28
65738;BMP280;52478;51.844;6.582;2024-02-21T06:08:48;101591.72;;;20.30
65738;BMP280;52478;51.844;6.582;2024-02-21T06:11:14;101578.84;;;20.32
65738;BMP280;52478;51.844;6.582;2024-02-21T06:13:41;101569.28;;;20.33
65738;BMP280;52478;51.844;6.582;2024-02-21T06:16:07;101560.44;;;20.35
65738;BMP280;52478;51.844;6.582;2024-02-21T06:18:35;101559.91;;;20.31
65738;BMP280;52478;51.844;6.582;2024-02-21T06:21:01;101568.50;;;20.33
65738;BMP280;52478;51.844;6.582;2024-02-21T06:23:29;101554.59;;;20.33
65738;BMP280;52478;51.844;6.582;2024-02-21T06:25:56;101554.09;;;20.34
65738;BMP280;52478;51.844;6.582;2024-02-21T06:28:22;101566.00;;;20.35
65738;BMP280;52478;51.844;6.582;2024-02-21T06:30:49;101552.34;;;20.37
65738;BMP280;52478;51.844;6.582;2024-02-21T06:33:15;101553.09;;;20.37
65738;BMP280;52478;51.844;6.582;2024-02-21T06:35:42;101560.69;;;20.37
65738;BMP280;52478;51.844;6.582;2024-02-21T06:38:11;101552.34;;;20.37
65738;BMP280;52478;51.844;6.582;2024-02-21T06:40:39;101543.75;;;20.35
65738;BMP280;52478;51.844;6.582;2024-02-21T06:43:05;101540.69;;;20.33
65738;BMP280;52478;51.844;6.582;2024-02-21T06:45:32;101548.25;;;20.32
65738;BMP280;52478;51.844;6.582;2024-02-21T06:47:58;101558.41;;;20.35
65738;BMP280;52478;51.844;6.582;2024-02-21T06:50:25;101551.06;;;20.38
65738;BMP280;52478;51.844;6.582;2024-02-21T06:52:51;101551.34;;;20.40
65738;BMP280;52478;51.844;6.582;2024-02-21T06:55:18;101537.69;;;20.42
65738;BMP280;52478;51.844;6.582;2024-02-21T06:57:46;101541.47;;;20.44
65738;BMP280;52478;51.844;6.582;2024-02-21T07:00:14;101545.03;;;20.45
65738;BMP280;52478;51.844;6.582;2024-02-21T07:02:41;101543.78;;;20.46
65738;BMP280;52478;51.844;6.582;2024-02-21T07:05:08;101543.78;;;20.46
65738;BMP280;52478;51.844;6.582;2024-02-21T07:07:34;101546.81;;;20.48
65738;BMP280;52478;51.844;6.582;2024-02-21T07:10:01;101537.72;;;20.47
65738;BMP280;52478;51.844;6.582;2024-02-21T07:12:27;101542.78;;;20.49
65738;BMP280;52478;51.844;6.582;2024-02-21T07:14:55;101548.34;;;20.49
65738;BMP280;52478;51.844;6.582;2024-02-21T07:17:22;101541.53;;;20.50
65738;BMP280;52478;51.844;6.582;2024-02-21T07:19:48;101535.19;;;20.49
65738;BMP280;52478;51.844;6.582;2024-02-21T07:22:15;101540.25;;;20.51
65738;BMP280;52478;51.844;6.582;2024-02-21T07:24:41;101549.88;;;20.50
65738;BMP280;52478;51.844;6.582;2024-02-21T07:27:07;101544.31;;;20.50
65738;BMP280;52478;51.844;6.582;2024-02-21T07:29:34;101538.75;;;20.50
65738;BMP280;52478;51.844;6.582;2024-02-21T07:32:02;101524.56;;;20.48
65738;BMP280;52478;51.844;6.582;2024-02-21T07:34:29;101526.09;;;20.49
65738;BMP280;52478;51.844;6.582;2024-02-21T07:36:55;101527.63;;;20.50
65738;BMP280;52478;51.844;6.582;2024-02-21T07:39:22;101520.53;;;20.49
65738;BMP280;52478;51.844;6.582;2024-02-21T07:41:48;101527.34;;;20.48
65738;BMP280;52478;51.844;6.582;2024-02-21T07:44:15;101519.00;;;20.48
65738;BMP280;52478;51.844;6.582;2024-02-21T07:46:42;101510.66;;;20.48
65738;BMP280;52478;51.844;6.582;2024-02-21T07:49:09;101516.22;;;20.48
65738;BMP280;52478;51.844;6.582;2024-02-21T07:51:36;101499.53;;;20.48
65738;BMP280;52478;51.844;6.582;2024-02-21T07:54:03;101516.22;;;20.48
65738;BMP280;52478;51.844;6.582;2024-02-21T07:56:30;101512.69;;;20.47
65738;BMP280;52478;51.844;6.582;2024-02-21T07:58:56;101503.84;;;20.43
65738;BMP280;52478;51.844;6.582;2024-02-21T08:01:23;101503.31;;;20.45
65738;BMP280;52478;51.844;6.582;2024-02-21T08:03:49;101494.72;;;20.43
65738;BMP280;52478;51.844;6.582;2024-02-21T08:06:17;101486.63;;;20.45
65738;BMP280;52478;51.844;6.582;2024-02-21T08:08:43;101481.81;;;20.45
65738;BMP280;52478;51.844;6.582;2024-02-21T08:11:10;101478.56;;;20.47
65738;BMP280;52478;51.844;6.582;2024-02-21T08:13:36;101485.63;;;20.48
65738;BMP280;52478;51.844;6.582;2024-02-21T08:16:03;101472.47;;;20.48
65738;BMP280;52478;51.844;6.582;2024-02-21T08:18:30;101459.34;;;20.49
65738;BMP280;52478;51.844;6.582;2024-02-21T08:20:56;101460.09;;;20.49
65738;BMP280;52478;51.844;6.582;2024-02-21T08:23:24;101446.19;;;20.49
65738;BMP280;52478;51.844;6.582;2024-02-21T08:25:51;101438.63;;;20.50
65738;BMP280;52478;51.844;6.582;2024-02-21T08:28:17;101447.22;;;20.52
65738;BMP280;52478;51.844;6.582;2024-02-21T08:30:44;101435.34;;;20.51
65738;BMP280;52478;51.844;6.582;2024-02-21T08:33:13;101440.34;;;20.53
65738;BMP280;52478;51.844;6.582;2024-02-21T08:35:39;101443.91;;;20.53
65738;BMP280;52478;51.844;6.582;2024-02-21T08:38:06;101432.00;;;20.53
65738;BMP280;52478;51.844;6.582;2024-02-21T08:40:33;101442.66;;;20.54
65738;BMP280;52478;51.844;6.582;2024-02-21T08:43:00;101439.88;;;20.54
65738;BMP280;52478;51.844;6.582;2024-02-21T08:45:26;101442.16;;;20.56
65738;BMP280;52478;51.844;6.582;2024-02-21T08:47:53;101430.28;;;20.55
65738;BMP280;52478;51.844;6.582;2024-02-21T08:50:19;101418.63;;;20.57
65738;BMP280;52478;51.844;6.582;2024-02-21T08:52:46;101421.41;;;20.57
65738;BMP280;52478;51.844;6.582;2024-02-21T08:55:12;101414.34;;;20.56
65738;BMP280;52478;51.844;6.582;2024-02-21T08:57:40;101410.28;;;20.57
65738;BMP280;52478;51.844;6.582;2024-02-21T09:00:07;101415.09;;;20.56
65738;BMP280;52478;51.844;6.582;2024-02-21T09:02:36;101413.06;;;20.57
65738;BMP280;52478;51.844;6.582;2024-02-21T09:05:04;101403.22;;;20.56
65738;BMP280;52478;51.844;6.582;2024-02-21T09:07:31;101400.44;;;20.56
65738;BMP280;52478;51.844;6.582;2024-02-21T09:09:58;101409.53;;;20.56
65738;BMP280;52478;51.844;6.582;2024-02-21T09:12:24;101412.53;;;20.53
65738;BMP280;52478;51.844;6.582;2024-02-21T09:14:52;101400.94;;;20.49
65738;BMP280;52478;51.844;6.582;2024-02-21T09:17:18;101393.38;;;20.44
65738;BMP280;52478;51.844;6.582;2024-02-21T09:19:45;101399.41;;;20.42
65738;BMP280;52478;51.844;6.582;2024-02-21T09:22:12;101390.78;;;20.40
65738;BMP280;52478;51.844;6.582;2024-02-21T09:24:38;101392.81;;;20.40
65738;BMP280;52478;51.844;6.582;2024-02-21T09:27:05;101385.75;;;20.39
65738;BMP280;52478;51.844;6.582;2024-02-21T09:29:32;101388.53;;;20.39
65738;BMP280;52478;51.844;6.582;2024-02-21T09:32:00;101398.13;;;20.38
65738;BMP280;52478;51.844;6.582;2024-02-21T09:34:28;101398.38;;;20.34
65738;BMP280;52478;51.844;6.582;2024-02-21T09:36:54;101392.06;;;20.34
65738;BMP280;52478;51.844;6.582;2024-02-21T09:39:21;101398.88;;;20.33
65738;BMP280;52478;51.844;6.582;2024-02-21T09:41:50;101393.59;;;20.35
65738;BMP280;52478;51.844;6.582;2024-02-21T09:44:21;101381.69;;;20.34
65738;BMP280;52478;51.844;6.582;2024-02-21T09:46:50;101385.75;;;20.33
65738;BMP280;52478;51.844;6.582;2024-02-21T09:49:30;101393.81;;;20.31
65738;BMP280;52478;51.844;6.582;2024-02-21T09:51:58;101390.53;;;20.33
65738;BMP280;52478;51.844;6.582;2024-02-21T09:54:28;101374.84;;;20.30
65738;BMP280;52478;51.844;6.582;2024-02-21T09:56:55;101377.38;;;20.28
65738;BMP280;52478;51.844;6.582;2024-02-21T09:59:22;101371.81;;;20.28
65738;BMP280;52478;51.844;6.582;2024-02-21T10:01:49;101374.38;;;20.26
65738;BMP280;52478;51.844;6.582;2024-02-21T10:04:16;101372.31;;;20.26
65738;BMP280;52478;51.844;6.582;2024-02-21T10:06:45;101371.59;;;20.26
65738;BMP280;52478;51.844;6.582;2024-02-21T10:09:20;101368.03;;;20.25
65738;BMP280;52478;51.844;6.582;2024-02-21T10:11:48;101361.69;;;20.25
65738;BMP280;52478;51.844;6.582;2024-02-21T10:14:15;101354.63;;;20.24
65738;BMP280;52478;51.844;6.582;2024-02-21T10:16:42;101342.00;;;20.23
65738;BMP280;52478;51.844;6.582;2024-02-21T10:19:16;101346.06;;;20.22
65738;BMP280;52478;51.844;6.582;2024-02-21T10:21:42;101350.56;;;20.19
65738;BMP280;52478;51.844;6.582;2024-02-21T10:24:12;101338.19;;;20.15
65738;BMP280;52478;51.844;6.582;2024-02-21T10:26:38;101332.13;;;20.16
65738;BMP280;52478;51.844;6.582;2024-02-21T10:29:05;101346.28;;;20.18
65738;BMP280;52478;51.844;6.582;2024-02-21T10:31:31;101346.53;;;20.15
65738;BMP280;52478;51.844;6.582;2024-02-21T10:33:58;101342.47;;;20.16
65738;BMP280;52478;51.844;6.582;2024-02-21T10:36:25;101338.19;;;20.15
65738;BMP280;52478;51.844;6.582;2024-02-21T10:38:52;101326.31;;;20.09
65738;BMP280;52478;51.844;6.582;2024-02-21T10:41:21;101325.03;;;20.10
65738;BMP280;52478;51.844;6.582;2024-02-21T10:43:49;101314.69;;;20.05
65738;BMP280;52478;51.844;6.582;2024-02-21T10:46:19;101305.56;;;20.05
65738;BMP280;52478;51.844;6.582;2024-02-21T10:48:46;101305.84;;;20.07
65738;BMP280;52478;51.844;6.582;2024-02-21T10:51:15;101303.56;;;20.05
65738;BMP280;52478;51.844;6.582;2024-02-21T10:53:45;101296.22;;;20.02
65738;BMP280;52478;51.844;6.582;2024-02-21T10:56:25;101290.91;;;20.04
65738;BMP280;52478;51.844;6.582;2024-02-21T10:58:52;101265.13;;;19.98
65738;BMP280;52478;51.844;6.582;2024-02-21T11:01:20;101268.44;;;20.08
65738;BMP280;52478;51.844;6.582;2024-02-21T11:03:48;101246.19;;;20.08
65738;BMP280;52478;51.844;6.582;2024-02-21T11:06:15;101243.19;;;20.06
65738;BMP280;52478;51.844;6.582;2024-02-21T11:08:42;101232.31;;;20.02
65738;BMP280;52478;51.844;6.582;2024-02-21T11:11:11;101235.59;;;20.06
65738;BMP280;52478;51.844;6.582;2024-02-21T11:13:43;101234.09;;;20.11
65738;BMP280;52478;51.844;6.582;2024-02-21T11:16:12;101231.28;;;20.16
65738;BMP280;52478;51.844;6.582;2024-02-21T11:18:47;101218.41;;;20.18
65738;BMP280;52478;51.844;6.582;2024-02-21T11:21:14;101210.06;;;20.18
65738;BMP280;52478;51.844;6.582;2024-02-21T11:23:40;101204.75;;;20.20
65738;BMP280;52478;51.844;6.582;2024-02-21T11:26:07;101198.22;;;20.23
65738;BMP280;52478;51.844;6.582;2024-02-21T11:28:33;101183.53;;;20.23
65738;BMP280;52478;51.844;6.582;2024-02-21T11:31:08;101194.38;;;20.21
65738;BMP280;52478;51.844;6.582;2024-02-21T11:33:35;101176.72;;;20.18
65738;BMP280;52478;51.844;6.582;2024-02-21T11:36:01;101164.88;;;20.23
65738;BMP280;52478;51.844;6.582;2024-02-21T11:38:29;101146.41;;;20.26
65738;BMP280;52478;51.844;6.582;2024-02-21T11:40:56;101134.00;;;20.27
65738;BMP280;52478;51.844;6.582;2024-02-21T11:43:23;101115.53;;;20.24
65738;BMP280;52478;51.844;6.582;2024-02-21T11:45:50;101104.91;;;20.28
65738;BMP280;52478;51.844;6.582;2024-02-21T11:48:18;101101.16;;;20.31
65738;BMP280;52478;51.844;6.582;2024-02-21T11:50:52;101091.28;;;20.30
65738;BMP280;52478;51.844;6.582;2024-02-21T11:53:20;101083.16;;;20.32
65738;BMP280;52478;51.844;6.582;2024-02-21T11:55:46;101091.28;;;20.30
65738;BMP280;52478;51.844;6.582;2024-02-21T11:58:13;101085.69;;;20.30
65738;BMP280;52478;51.844;6.582;2024-02-21T12:00:39;101092.31;;;20.27
65738;BMP280;52478;51.844;6.582;2024-02-21T12:03:07;101109.97;;;20.24
65738;BMP280;52478;51.844;6.582;2024-02-21T12:05:35;101094.81;;;20.25
65738;BMP280;52478;51.844;6.582;2024-02-21T12:08:02;101083.69;;;20.25
65738;BMP280;52478;51.844;6.582;2024-02-21T12:10:29;101064.72;;;20.29
65738;BMP280;52478;51.844;6.582;2024-02-21T12:13:05;101045.75;;;20.33
65738;BMP280;52478;51.844;6.582;2024-02-21T12:15:31;101047.28;;;20.34
65738;BMP280;52478;51.844;6.582;2024-02-21T12:17:58;101046.53;;;20.33
65738;BMP280;52478;51.844;6.582;2024-02-21T12:20:25;101037.94;;;20.31
65738;BMP280;52478;51.844;6.582;2024-02-21T12:22:53;101031.66;;;20.31
65738;BMP280;52478;51.844;6.582;2024-02-21T12:25:21;101041.50;;;20.26
65738;BMP280;52478;51.844;6.582;2024-02-21T12:27:49;101050.63;;;20.27
65738;BMP280;52478;51.844;6.582;2024-02-21T12:30:15;101054.88;;;20.28
65738;BMP280;52478;51.844;6.582;2024-02-21T12:32:42;101050.84;;;20.29
65738;BMP280;52478;51.844;6.582;2024-02-21T12:35:09;101036.94;;;20.29
65738;BMP280;52478;51.844;6.582;2024-02-21T12:37:35;101031.66;;;20.31
65738;BMP280;52478;51.844;6.582;2024-02-21T12:40:05;101027.84;;;20.28
65738;BMP280;52478;51.844;6.582;2024-02-21T12:42:32;101003.34;;;20.27
65738;BMP280;52478;51.844;6.582;2024-02-21T12:44:58;100992.97;;;20.27
65738;BMP280;52478;51.844;6.582;2024-02-21T12:47:25;100984.88;;;20.29
65738;BMP280;52478;51.844;6.582;2024-02-21T12:49:51;100970.22;;;20.29
65738;BMP280;52478;51.844;6.582;2024-02-21T12:52:18;100980.84;;;20.30
65738;BMP280;52478;51.844;6.582;2024-02-21T12:54:44;100971.22;;;20.31
65738;BMP280;52478;51.844;6.582;2024-02-21T12:57:12;100957.56;;;20.33
65738;BMP280;52478;51.844;6.582;2024-02-21T12:59:39;100961.09;;;20.34
65738;BMP280;52478;51.844;6.582;2024-02-21T13:02:06;100959.59;;;20.33
65738;BMP280;52478;51.844;6.582;2024-02-21T13:04:33;100936.84;;;20.34
65738;BMP280;52478;51.844;6.582;2024-02-21T13:07:00;100932.56;;;20.33
65738;BMP280;52478;51.844;6.582;2024-02-21T13:09:26;100899.94;;;20.34
65738;BMP280;52478;51.844;6.582;2024-02-21T13:11:53;100896.41;;;20.33
65738;BMP280;52478;51.844;6.582;2024-02-21T13:14:21;100888.31;;;20.35
65738;BMP280;52478;51.844;6.582;2024-02-21T13:16:48;100881.72;;;20.38
65738;BMP280;52478;51.844;6.582;2024-02-21T13:19:15;100885.50;;;20.41
65738;BMP280;52478;51.844;6.582;2024-02-21T13:21:43;100866.25;;;20.43
65738;BMP280;52478;51.844;6.582;2024-02-21T13:24:09;100855.13;;;20.43
65738;BMP280;52478;51.844;6.582;2024-02-21T13:26:36;100835.97;;;20.39
65738;BMP280;52478;51.844;6.582;2024-02-21T13:29:02;100828.59;;;20.42
65738;BMP280;52478;51.844;6.582;2024-02-21T13:31:30;100808.09;;;20.45
65738;BMP280;52478;51.844;6.582;2024-02-21T13:33:56;100810.66;;;20.43
65738;BMP280;52478;51.844;6.582;2024-02-21T13:36:23;100795.00;;;20.40
65738;BMP280;52478;51.844;6.582;2024-02-21T13:38:50;100780.13;;;20.37
65738;BMP280;52478;51.844;6.582;2024-02-21T13:41:16;100772.53;;;20.38
65738;BMP280;52478;51.844;6.582;2024-02-21T13:43:43;100776.56;;;20.37
65738;BMP280;52478;51.844;6.582;2024-02-21T13:46:11;100761.16;;;20.36
65738;BMP280;52478;51.844;6.582;2024-02-21T13:48:39;100763.94;;;20.36
65738;BMP280;52478;51.844;6.582;2024-02-21T13:51:07;100769.75;;;20.38
65738;BMP280;52478;51.844;6.582;2024-02-21T13:53:34;100770.81;;;20.35
65738;BMP280;52478;51.844;6.582;2024-02-21T13:56:00;100762.91;;;20.39